Time;durP1;ratioP1;P1;durP2;ratioP2;P2;SDS_P1;SDS_P2;PMS_P1;PMS_P2;Temp;Humidity;BMP_temperature;BMP_pressure;BME280_temperature;BME280_humidity;BME280_pressure;Samples;Min_cycle;Max_cycle;Signal;HPM_P1;HPM_P2
2021/11/10 00:00:43;;;;;;;12.38;5.57;;;;;;;;;;5075608;28;20071;-74
2021/11/10 00:03:10;;;;;;;10.80;4.93;;;;;;;;;;5074227;28;20155;-74
2021/11/10 00:05:39;;;;;;;11.38;4.55;;;;;;;;;;5056275;28;20063;-74
2021/11/10 00:08:06;;;;;;;9.18;4.38;;;;;;;;;;5077526;28;20086;-74
2021/11/10 00:10:32;;;;;;;7.47;4.20;;;;;;;;;;5078306;28;20079;-74
2021/11/10 00:15:40;;;;;;;7.15;4.28;;;;;;;;;;5072275;28;20151;-74
2021/11/10 00:18:06;;;;;;;9.93;4.10;;;;;;;;;;5075504;28;20295;-74
2021/11/10 00:20:33;;;;;;;7.00;3.78;;;;;;;;;;5076360;28;20139;-74
2021/11/10 00:23:01;;;;;;;7.20;4.38;;;;;;;;;;5079252;28;20079;-74
2021/11/10 00:25:28;;;;;;;8.10;4.28;;;;;;;;;;5076641;28;20321;-74
2021/11/10 00:27:54;;;;;;;6.20;3.83;;;;;;;;;;5078403;28;20052;-74
2021/11/10 00:30:21;;;;;;;7.07;3.60;;;;;;;;;;5076090;28;20130;-74
2021/11/10 00:32:48;;;;;;;8.30;4.30;;;;;;;;;;5077522;28;20147;-74
2021/11/10 00:35:14;;;;;;;6.50;3.15;;;;;;;;;;5097841;28;20052;-74
2021/11/10 00:37:41;;;;;;;7.10;4.25;;;;;;;;;;5095311;28;20071;-74
2021/11/10 00:40:10;;;;;;;9.13;4.75;;;;;;;;;;5093664;28;20075;-74
2021/11/10 00:42:36;;;;;;;10.80;4.32;;;;;;;;;;5096922;28;20495;-74
2021/11/10 00:45:04;;;;;;;7.13;3.97;;;;;;;;;;5090529;28;20079;-74
2021/11/10 00:47:30;;;;;;;8.23;4.43;;;;;;;;;;5093516;28;20080;-74
2021/11/10 00:49:57;;;;;;;6.47;3.97;;;;;;;;;;5095978;28;20155;-74
2021/11/10 00:52:23;;;;;;;5.80;3.08;;;;;;;;;;5104808;27;20203;-74
2021/11/10 00:54:50;;;;;;;10.25;5.25;;;;;;;;;;5104528;27;20078;-73
2021/11/10 00:57:18;;;;;;;6.15;3.78;;;;;;;;;;5104250;28;20124;-73
2021/11/10 00:59:45;;;;;;;8.88;4.63;;;;;;;;;;5097222;27;20135;-73
2021/11/10 01:02:12;;;;;;;8.63;3.83;;;;;;;;;;5095370;28;20130;-74
2021/11/10 01:04:38;;;;;;;7.50;3.58;;;;;;;;;;5101133;28;20043;-74
2021/11/10 01:07:07;;;;;;;7.13;4.15;;;;;;;;;;5104263;27;20082;-74
2021/11/10 01:09:39;;;;;;;6.93;3.65;;;;;;;;;;5097399;28;20076;-74
2021/11/10 01:12:08;;;;;;;8.02;4.10;;;;;;;;;;5104345;28;20083;-73
2021/11/10 01:14:36;;;;;;;5.63;3.15;;;;;;;;;;5096557;27;20044;-74
2021/11/10 01:17:03;;;;;;;7.93;4.57;;;;;;;;;;5096046;28;20493;-74
2021/11/10 01:19:30;;;;;;;10.60;4.30;;;;;;;;;;5099469;28;20075;-74
2021/11/10 01:21:56;;;;;;;8.90;4.45;;;;;;;;;;5104269;27;20536;-74
2021/11/10 01:24:23;;;;;;;6.05;3.63;;;;;;;;;;5103407;27;20090;-74
2021/11/10 01:26:49;;;;;;;6.07;4.00;;;;;;;;;;5098583;27;20494;-74
2021/11/10 01:29:16;;;;;;;12.63;5.10;;;;;;;;;;5103278;27;20072;-74
2021/11/10 01:31:44;;;;;;;8.48;4.28;;;;;;;;;;5101415;28;20513;-74
2021/11/10 01:34:10;;;;;;;10.82;5.32;;;;;;;;;;5103316;27;20083;-74
2021/11/10 01:36:38;;;;;;;8.57;4.07;;;;;;;;;;5102075;27;20071;-74
2021/11/10 01:39:05;;;;;;;9.25;4.32;;;;;;;;;;5099919;28;20126;-74
2021/11/10 01:41:33;;;;;;;7.70;3.92;;;;;;;;;;5098274;28;20120;-74
2021/11/10 01:43:59;;;;;;;11.07;4.80;;;;;;;;;;5097212;27;20138;-74
2021/11/10 01:46:27;;;;;;;15.90;5.80;;;;;;;;;;5100743;28;20474;-74
2021/11/10 01:48:55;;;;;;;12.05;4.15;;;;;;;;;;5097501;28;20075;-74
2021/11/10 01:51:24;;;;;;;8.88;4.25;;;;;;;;;;5101406;27;20098;-74
2021/11/10 01:53:53;;;;;;;7.65;3.92;;;;;;;;;;5100513;28;20075;-74
2021/11/10 01:56:20;;;;;;;10.30;4.63;;;;;;;;;;5099297;28;20079;-74
2021/11/10 01:58:46;;;;;;;5.40;3.40;;;;;;;;;;5097842;28;20134;-74
2021/11/10 02:01:13;;;;;;;8.05;4.07;;;;;;;;;;5098320;28;20067;-74
2021/11/10 02:03:39;;;;;;;7.55;4.50;;;;;;;;;;5100050;28;20134;-74
2021/11/10 02:06:08;;;;;;;11.40;5.40;;;;;;;;;;5102551;28;20072;-74
2021/11/10 02:08:35;;;;;;;7.63;4.50;;;;;;;;;;5097103;27;20381;-74
2021/11/10 02:11:01;;;;;;;9.55;4.78;;;;;;;;;;5099893;28;20150;-73
2021/11/10 02:13:28;;;;;;;8.85;5.55;;;;;;;;;;5099837;28;20410;-73
2021/11/10 02:15:54;;;;;;;10.55;4.85;;;;;;;;;;5098029;28;20143;-74
2021/11/10 02:18:21;;;;;;;8.32;4.80;;;;;;;;;;5092903;27;20124;-74
2021/11/10 02:20:50;;;;;;;11.75;4.63;;;;;;;;;;5093942;28;20071;-74
2021/11/10 02:23:18;;;;;;;10.20;5.25;;;;;;;;;;5101580;27;20052;-74
2021/11/10 02:25:45;;;;;;;9.63;4.75;;;;;;;;;;5101596;28;20107;-74
2021/11/10 02:28:11;;;;;;;7.72;4.22;;;;;;;;;;5099146;27;20043;-73
2021/11/10 02:30:38;;;;;;;7.82;4.75;;;;;;;;;;5096340;28;20043;-73
2021/11/10 02:33:05;;;;;;;11.40;5.85;;;;;;;;;;5093499;27;20133;-74
2021/11/10 02:35:32;;;;;;;8.43;4.78;;;;;;;;;;5078701;28;20131;-74
2021/11/10 02:38:02;;;;;;;8.32;5.03;;;;;;;;;;5078046;28;20063;-74
2021/11/10 02:40:30;;;;;;;8.25;5.15;;;;;;;;;;5079787;28;20089;-74
2021/11/10 02:42:58;;;;;;;11.05;5.07;;;;;;;;;;5079302;28;20071;-74
2021/11/10 02:45:25;;;;;;;11.27;5.40;;;;;;;;;;5078431;28;20083;-74
2021/11/10 02:47:52;;;;;;;8.68;4.13;;;;;;;;;;5075258;28;20139;-74
2021/11/10 02:50:19;;;;;;;8.52;4.75;;;;;;;;;;5078887;28;20042;-74
2021/11/10 02:52:46;;;;;;;9.93;4.47;;;;;;;;;;5079942;28;20105;-74
2021/11/10 02:55:14;;;;;;;8.15;4.47;;;;;;;;;;5081131;28;20138;-74
2021/11/10 02:57:41;;;;;;;8.45;4.70;;;;;;;;;;5076088;28;20127;-74
2021/11/10 03:00:11;;;;;;;6.78;3.90;;;;;;;;;;5078340;28;20075;-74
2021/11/10 03:02:37;;;;;;;11.02;4.82;;;;;;;;;;5078700;28;20547;-74
2021/11/10 03:05:05;;;;;;;9.70;4.78;;;;;;;;;;5080104;28;20052;-74
2021/11/10 03:07:32;;;;;;;9.18;4.43;;;;;;;;;;5076021;28;20677;-74
2021/11/10 03:09:58;;;;;;;9.50;4.25;;;;;;;;;;5079717;28;20044;-73
2021/11/10 03:12:26;;;;;;;9.40;5.30;;;;;;;;;;5077835;28;20075;-74
2021/11/10 03:14:53;;;;;;;10.35;4.50;;;;;;;;;;5079064;28;20136;-74
2021/11/10 03:17:21;;;;;;;9.57;4.38;;;;;;;;;;5071179;28;20141;-73
2021/11/10 03:19:48;;;;;;;8.23;4.32;;;;;;;;;;5072129;28;20135;-74
2021/11/10 03:22:16;;;;;;;8.55;4.25;;;;;;;;;;5068561;28;20094;-74
2021/11/10 03:24:43;;;;;;;10.50;4.63;;;;;;;;;;5082416;28;20438;-73
2021/11/10 03:27:09;;;;;;;7.65;4.47;;;;;;;;;;5077510;28;20079;-74
2021/11/10 03:29:38;;;;;;;12.18;4.80;;;;;;;;;;5081495;28;20134;-74
2021/11/10 03:32:06;;;;;;;8.95;5.20;;;;;;;;;;5075430;28;20067;-73
2021/11/10 03:34:33;;;;;;;8.80;4.20;;;;;;;;;;5072531;28;20144;-74
2021/11/10 03:37:00;;;;;;;9.85;4.63;;;;;;;;;;5071698;28;20051;-74
2021/11/10 03:39:26;;;;;;;10.57;5.25;;;;;;;;;;5068529;28;20083;-74
2021/11/10 03:41:53;;;;;;;9.73;5.05;;;;;;;;;;5076971;28;20143;-74
2021/11/10 03:44:20;;;;;;;10.00;5.07;;;;;;;;;;5074962;28;20517;-74
2021/11/10 03:46:48;;;;;;;13.02;5.55;;;;;;;;;;5055265;28;20106;-74
2021/11/10 03:49:15;;;;;;;9.90;5.45;;;;;;;;;;5073448;28;20747;-74
2021/11/10 03:51:42;;;;;;;11.10;6.03;;;;;;;;;;5073170;28;20389;-74
2021/11/10 03:54:09;;;;;;;13.88;6.25;;;;;;;;;;5074310;28;20079;-74
2021/11/10 03:56:36;;;;;;;11.60;5.35;;;;;;;;;;5075871;28;20600;-74
2021/11/10 03:59:03;;;;;;;10.18;5.72;;;;;;;;;;5075791;28;20080;-74
2021/11/10 04:01:30;;;;;;;8.70;5.07;;;;;;;;;;5070694;28;20258;-74
2021/11/10 04:03:58;;;;;;;12.77;5.57;;;;;;;;;;5078347;28;20048;-74
2021/11/10 04:06:24;;;;;;;9.70;5.63;;;;;;;;;;5078675;28;20083;-74
2021/11/10 04:08:51;;;;;;;11.95;6.13;;;;;;;;;;5081641;28;20478;-74
2021/11/10 04:11:19;;;;;;;12.32;5.63;;;;;;;;;;5065443;28;20780;-74
2021/11/10 04:13:45;;;;;;;12.02;5.57;;;;;;;;;;5065164;28;20534;-74
2021/11/10 04:16:13;;;;;;;9.90;5.35;;;;;;;;;;5067458;28;20673;-74
2021/11/10 04:18:40;;;;;;;9.75;4.97;;;;;;;;;;5072731;28;20044;-74
2021/11/10 04:21:08;;;;;;;8.55;5.22;;;;;;;;;;5074115;28;20072;-74
2021/11/10 04:23:35;;;;;;;10.82;5.53;;;;;;;;;;5078022;28;20083;-74
2021/11/10 04:26:04;;;;;;;8.52;4.72;;;;;;;;;;5073304;28;20136;-74
2021/11/10 04:28:31;;;;;;;10.20;4.75;;;;;;;;;;5071482;28;20094;-74
2021/11/10 04:30:58;;;;;;;9.65;5.55;;;;;;;;;;5064071;28;20044;-74
2021/11/10 04:33:25;;;;;;;12.27;5.32;;;;;;;;;;5076689;28;20071;-74
2021/11/10 04:35:53;;;;;;;10.00;5.03;;;;;;;;;;5107158;27;20103;-74
2021/11/10 04:38:21;;;;;;;11.90;4.95;;;;;;;;;;5102909;27;20152;-74
2021/11/10 04:40:48;;;;;;;8.27;4.75;;;;;;;;;;5101208;28;20047;-74
2021/11/10 04:43:15;;;;;;;10.18;4.90;;;;;;;;;;5107996;28;20286;-74
2021/11/10 04:45:43;;;;;;;11.30;5.18;;;;;;;;;;5102669;28;20048;-74
2021/11/10 04:48:10;;;;;;;9.82;5.60;;;;;;;;;;5100245;28;20449;-74
2021/11/10 04:50:37;;;;;;;9.02;4.82;;;;;;;;;;5098097;28;20055;-74
2021/11/10 04:53:04;;;;;;;9.63;5.28;;;;;;;;;;5097731;28;20075;-74
2021/11/10 04:55:32;;;;;;;9.70;5.53;;;;;;;;;;5106218;28;20822;-74
2021/11/10 04:57:59;;;;;;;8.48;4.47;;;;;;;;;;5116450;28;20112;-74
2021/11/10 05:00:26;;;;;;;8.98;4.72;;;;;;;;;;5113595;28;20039;-74
2021/11/10 05:02:52;;;;;;;9.85;5.93;;;;;;;;;;5101882;28;20079;-74
2021/11/10 05:05:19;;;;;;;12.15;5.35;;;;;;;;;;5103272;28;20054;-74
2021/11/10 05:07:47;;;;;;;8.93;5.32;;;;;;;;;;5091950;28;20120;-74
2021/11/10 05:10:13;;;;;;;11.05;5.55;;;;;;;;;;5098328;28;20494;-74
2021/11/10 05:12:41;;;;;;;9.88;5.20;;;;;;;;;;5094317;28;20138;-74
2021/11/10 05:15:09;;;;;;;9.75;5.65;;;;;;;;;;5105359;28;20047;-74
2021/11/10 05:17:35;;;;;;;10.50;5.93;;;;;;;;;;5094206;28;20119;-74
2021/11/10 05:20:02;;;;;;;11.68;5.70;;;;;;;;;;5106287;28;20148;-74
2021/11/10 05:22:28;;;;;;;10.30;6.10;;;;;;;;;;5097680;28;20082;-74
2021/11/10 05:24:55;;;;;;;11.82;5.55;;;;;;;;;;5084449;28;20621;-74
2021/11/10 05:27:22;;;;;;;14.40;6.90;;;;;;;;;;5099670;28;20148;-74
2021/11/10 05:29:50;;;;;;;14.32;6.53;;;;;;;;;;5094396;28;20075;-74
2021/11/10 05:32:16;;;;;;;14.27;7.07;;;;;;;;;;5091617;28;20135;-74
2021/11/10 05:34:43;;;;;;;11.25;6.20;;;;;;;;;;5068451;28;20115;-74
2021/11/10 05:37:10;;;;;;;12.43;7.07;;;;;;;;;;5080695;28;20444;-73
2021/11/10 05:39:36;;;;;;;13.70;7.47;;;;;;;;;;5085029;28;20079;-74
2021/11/10 05:42:03;;;;;;;13.20;8.15;;;;;;;;;;5075748;28;20036;-74
2021/11/10 05:44:32;;;;;;;14.02;7.07;;;;;;;;;;5067437;28;20045;-74
2021/11/10 05:47:00;;;;;;;12.70;6.55;;;;;;;;;;5071440;28;20561;-73
2021/11/10 05:49:26;;;;;;;17.38;8.88;;;;;;;;;;5074269;28;20137;-74
2021/11/10 05:51:53;;;;;;;16.48;8.18;;;;;;;;;;5083391;28;20567;-74
2021/11/10 05:54:20;;;;;;;15.05;8.00;;;;;;;;;;5087044;28;20088;-74
2021/11/10 05:56:47;;;;;;;16.35;9.43;;;;;;;;;;5080640;28;20048;-74
2021/11/10 05:59:14;;;;;;;17.70;9.52;;;;;;;;;;5074956;28;20402;-74
2021/11/10 06:01:41;;;;;;;17.48;9.13;;;;;;;;;;5082676;28;20044;-74
2021/11/10 06:04:15;;;;;;;13.63;8.48;;;;;;;;;;5082658;28;20105;-74
2021/11/10 06:06:42;;;;;;;14.98;9.40;;;;;;;;;;5082901;28;20131;-74
2021/11/10 06:09:08;;;;;;;14.88;7.78;;;;;;;;;;5082829;28;20131;-73
2021/11/10 06:11:35;;;;;;;20.30;8.73;;;;;;;;;;5082920;28;20093;-74
2021/11/10 06:14:01;;;;;;;20.27;8.38;;;;;;;;;;5084189;28;20073;-74
2021/11/10 06:16:34;;;;;;;18.15;8.63;;;;;;;;;;5087701;28;20156;-74
2021/11/10 06:19:01;;;;;;;15.35;8.13;;;;;;;;;;5083681;28;20143;-74
2021/11/10 06:24:00;;;;;;;13.65;7.07;;;;;;;;;;5071977;22;20052;-84
2021/11/10 06:26:26;;;;;;;23.52;8.07;;;;;;;;;;5064595;28;20117;-83
2021/11/10 06:28:53;;;;;;;14.98;7.55;;;;;;;;;;5071856;28;20083;-82
2021/11/10 06:31:19;;;;;;;13.70;8.10;;;;;;;;;;5064055;28;20048;-82
2021/11/10 06:33:46;;;;;;;18.65;9.95;;;;;;;;;;5070599;28;20066;-81
2021/11/10 06:36:12;;;;;;;16.45;7.43;;;;;;;;;;5071484;28;20080;-82
2021/11/10 06:38:39;;;;;;;18.80;8.95;;;;;;;;;;5059038;28;20088;-83
2021/11/10 06:41:07;;;;;;;16.02;7.97;;;;;;;;;;5069724;28;20059;-82
2021/11/10 06:43:35;;;;;;;12.68;7.88;;;;;;;;;;5076095;28;20052;-83
2021/11/10 06:46:02;;;;;;;12.73;6.53;;;;;;;;;;5075706;28;20060;-82
2021/11/10 06:48:29;;;;;;;16.30;8.10;;;;;;;;;;5062578;28;20080;-83
2021/11/10 06:50:56;;;;;;;13.65;6.80;;;;;;;;;;5071910;28;20108;-82
2021/11/10 06:53:22;;;;;;;13.65;6.97;;;;;;;;;;5073485;28;20064;-82
2021/11/10 06:55:49;;;;;;;15.63;7.68;;;;;;;;;;5071495;28;20095;-82
2021/11/10 06:58:17;;;;;;;13.65;8.10;;;;;;;;;;5074734;28;20036;-81
2021/11/10 07:00:43;;;;;;;15.13;7.78;;;;;;;;;;5067405;28;20044;-82
2021/11/10 07:03:13;;;;;;;13.73;7.68;;;;;;;;;;5067402;28;20083;-82
2021/11/10 07:05:39;;;;;;;12.07;6.95;;;;;;;;;;5074529;28;20504;-83
2021/11/10 07:08:06;;;;;;;11.77;6.65;;;;;;;;;;5076033;28;20056;-81
2021/11/10 07:10:33;;;;;;;14.13;7.78;;;;;;;;;;5073019;28;20197;-82
2021/11/10 07:12:59;;;;;;;15.85;8.98;;;;;;;;;;5076089;28;20076;-82
2021/11/10 07:15:28;;;;;;;13.02;8.38;;;;;;;;;;5076955;28;20041;-82
2021/11/10 07:17:54;;;;;;;15.18;8.45;;;;;;;;;;5075586;28;20049;-82
2021/11/10 07:20:21;;;;;;;16.70;9.15;;;;;;;;;;5070171;28;20045;-81
2021/11/10 07:22:48;;;;;;;19.13;8.50;;;;;;;;;;5065778;28;20051;-82
2021/11/10 07:25:15;;;;;;;16.15;9.65;;;;;;;;;;5055053;28;20053;-82
2021/11/10 07:27:42;;;;;;;22.33;11.15;;;;;;;;;;5036445;28;20079;-82
2021/11/10 07:30:11;;;;;;;19.23;10.32;;;;;;;;;;5056943;28;20053;-80
2021/11/10 07:32:40;;;;;;;20.13;11.48;;;;;;;;;;5060691;28;20053;-83
2021/11/10 07:35:08;;;;;;;20.83;10.07;;;;;;;;;;5057244;28;20061;-83
2021/11/10 07:37:34;;;;;;;17.52;9.18;;;;;;;;;;5059508;28;20414;-82
2021/11/10 07:40:01;;;;;;;18.83;9.77;;;;;;;;;;5059606;28;20068;-80
2021/11/10 07:42:27;;;;;;;16.92;9.85;;;;;;;;;;5055908;28;20048;-82
2021/11/10 07:44:58;;;;;;;15.23;9.10;;;;;;;;;;5052000;28;20088;-82
2021/11/10 07:47:28;;;;;;;21.30;10.13;;;;;;;;;;5061003;28;20068;-82
2021/11/10 07:49:56;;;;;;;21.50;11.05;;;;;;;;;;5059279;28;20041;-83
2021/11/10 07:52:25;;;;;;;25.42;11.07;;;;;;;;;;5053798;28;20069;-82
2021/11/10 07:54:51;;;;;;;19.27;10.68;;;;;;;;;;5059230;28;20048;-82
2021/11/10 07:57:18;;;;;;;17.52;11.02;;;;;;;;;;5064903;28;20417;-81
2021/11/10 07:59:45;;;;;;;23.42;11.32;;;;;;;;;;5060337;28;20072;-81
2021/11/10 08:02:11;;;;;;;19.55;9.95;;;;;;;;;;5062104;28;20045;-83
2021/11/10 08:04:38;;;;;;;22.92;11.02;;;;;;;;;;5055741;28;20045;-81
2021/11/10 08:07:06;;;;;;;15.75;9.48;;;;;;;;;;5059350;28;20048;-81
2021/11/10 08:09:32;;;;;;;19.42;10.68;;;;;;;;;;5055785;28;20045;-82
2021/11/10 08:11:59;;;;;;;15.07;10.15;;;;;;;;;;5063167;28;20064;-82
2021/11/10 08:14:26;;;;;;;20.83;11.35;;;;;;;;;;5063778;28;20040;-84
2021/11/10 08:16:53;;;;;;;22.48;12.25;;;;;;;;;;5062532;28;20044;-82
2021/11/10 08:19:20;;;;;;;21.60;11.05;;;;;;;;;;5061497;28;20052;-80
2021/11/10 08:21:46;;;;;;;16.95;10.23;;;;;;;;;;5059946;28;20049;-82
2021/11/10 08:24:14;;;;;;;19.30;11.32;;;;;;;;;;5059238;28;20072;-82
2021/11/10 08:26:41;;;;;;;18.67;11.85;;;;;;;;;;5060264;28;20441;-82
2021/11/10 08:29:08;;;;;;;22.77;13.00;;;;;;;;;;5060671;28;20076;-84
2021/11/10 08:31:34;;;;;;;18.08;12.35;;;;;;;;;;5062380;28;20142;-83
2021/11/10 08:34:01;;;;;;;22.35;15.02;;;;;;;;;;5055985;28;20437;-83
2021/11/10 08:36:27;;;;;;;21.60;13.43;;;;;;;;;;5060498;28;20041;-82
2021/11/10 08:38:54;;;;;;;23.98;13.65;;;;;;;;;;5059328;28;20045;-83
2021/11/10 08:41:22;;;;;;;20.48;12.77;;;;;;;;;;5058923;28;20072;-82
2021/11/10 08:43:49;;;;;;;20.23;11.50;;;;;;;;;;5059475;28;20048;-81
2021/11/10 08:46:16;;;;;;;22.48;12.30;;;;;;;;;;5056581;28;20072;-83
2021/11/10 08:48:43;;;;;;;28.02;13.13;;;;;;;;;;5057427;28;20049;-82
2021/11/10 08:51:10;;;;;;;21.00;12.00;;;;;;;;;;5062865;28;20052;-82
2021/11/10 08:53:37;;;;;;;25.23;13.90;;;;;;;;;;5059546;28;20041;-84
2021/11/10 08:56:03;;;;;;;25.05;12.70;;;;;;;;;;5052941;28;20045;-82
2021/11/10 08:58:32;;;;;;;24.00;12.48;;;;;;;;;;5058439;28;20096;-81
2021/11/10 09:00:59;;;;;;;22.63;11.75;;;;;;;;;;5062135;28;20067;-82
2021/11/10 09:03:26;;;;;;;20.55;11.55;;;;;;;;;;5057406;28;20599;-82
2021/11/10 09:05:53;;;;;;;20.58;11.27;;;;;;;;;;5055903;28;20045;-83
2021/11/10 09:08:20;;;;;;;19.10;12.18;;;;;;;;;;5047083;28;20468;-82
2021/11/10 09:10:47;;;;;;;20.60;11.65;;;;;;;;;;5052575;28;20065;-83
2021/11/10 09:13:13;;;;;;;21.58;12.48;;;;;;;;;;5051951;28;20080;-81
2021/11/10 09:15:42;;;;;;;20.27;13.48;;;;;;;;;;5050328;28;20060;-83
2021/11/10 09:18:09;;;;;;;20.05;13.10;;;;;;;;;;5053550;28;20041;-80
2021/11/10 09:20:36;;;;;;;24.42;13.43;;;;;;;;;;5045892;28;20087;-81
2021/11/10 09:23:04;;;;;;;21.77;13.27;;;;;;;;;;5053610;28;20076;-82
2021/11/10 09:25:31;;;;;;;19.25;12.77;;;;;;;;;;5017176;28;20049;-81
2021/11/10 09:28:00;;;;;;;22.48;12.98;;;;;;;;;;5019640;28;20053;-81
2021/11/10 09:30:28;;;;;;;21.70;12.75;;;;;;;;;;5017246;28;20085;-82
2021/11/10 09:32:57;;;;;;;21.10;12.90;;;;;;;;;;5023575;28;20045;-80
2021/11/10 09:35:25;;;;;;;24.38;15.02;;;;;;;;;;5018200;28;20049;-81
2021/11/10 09:37:53;;;;;;;28.05;15.43;;;;;;;;;;5017578;28;20095;-83
2021/11/10 09:40:22;;;;;;;25.10;15.00;;;;;;;;;;5020490;28;20041;-82
2021/11/10 09:42:48;;;;;;;26.65;14.63;;;;;;;;;;5018086;28;20074;-82
2021/11/10 09:45:18;;;;;;;27.83;15.15;;;;;;;;;;5018524;28;20041;-81
2021/11/10 09:47:46;;;;;;;23.15;12.73;;;;;;;;;;5019091;28;20116;-81
2021/11/10 09:50:16;;;;;;;22.02;13.98;;;;;;;;;;5021572;28;20069;-83
2021/11/10 09:52:45;;;;;;;21.45;12.75;;;;;;;;;;5021375;28;20093;-82
2021/11/10 09:55:14;;;;;;;22.67;12.10;;;;;;;;;;5018197;28;20050;-82
2021/11/10 09:57:41;;;;;;;21.35;12.77;;;;;;;;;;5022992;28;20065;-82
2021/11/10 10:00:09;;;;;;;20.80;12.88;;;;;;;;;;5021498;28;20537;-82
2021/11/10 10:02:36;;;;;;;20.80;12.77;;;;;;;;;;5020831;28;20038;-83
2021/11/10 10:05:03;;;;;;;22.83;11.98;;;;;;;;;;5020788;28;20070;-82
2021/11/10 10:07:31;;;;;;;22.58;12.65;;;;;;;;;;5026834;28;20114;-82
2021/11/10 10:09:58;;;;;;;24.92;13.30;;;;;;;;;;5029977;28;20049;-82
2021/11/10 10:12:24;;;;;;;27.90;15.38;;;;;;;;;;5029381;28;20042;-84
2021/11/10 10:14:53;;;;;;;22.70;13.13;;;;;;;;;;5019701;28;20038;-82
2021/11/10 10:17:33;;;;;;;24.58;13.90;;;;;;;;;;5019605;28;20048;-84
2021/11/10 10:20:00;;;;;;;20.92;12.23;;;;;;;;;;5018175;28;20367;-82
2021/11/10 10:22:26;;;;;;;21.83;13.40;;;;;;;;;;5016668;28;20066;-85
2021/11/10 10:24:56;;;;;;;22.63;14.25;;;;;;;;;;5040424;28;20053;-82
2021/11/10 10:27:25;;;;;;;19.90;13.18;;;;;;;;;;5054876;28;20048;-81
2021/11/10 10:30:24;;;;;;;17.65;12.32;;;;;;;;;;5054942;28;20076;-82
2021/11/10 10:32:54;;;;;;;27.20;13.00;;;;;;;;;;5055421;28;20657;-82
2021/11/10 10:35:33;;;;;;;20.30;12.43;;;;;;;;;;5059152;28;20045;-80
2021/11/10 10:38:00;;;;;;;17.15;11.48;;;;;;;;;;5056078;28;20032;-81
2021/11/10 10:40:29;;;;;;;18.63;11.38;;;;;;;;;;5048389;28;20045;-83
2021/11/10 10:42:56;;;;;;;18.58;12.05;;;;;;;;;;5055259;28;20076;-83
2021/11/10 10:45:31;;;;;;;17.83;11.85;;;;;;;;;;5057229;28;20095;-84
2021/11/10 10:48:00;;;;;;;20.45;10.93;;;;;;;;;;5054827;28;20081;-82
2021/11/10 10:50:35;;;;;;;17.63;11.18;;;;;;;;;;5055752;28;20167;-82
2021/11/10 10:53:02;;;;;;;17.50;11.45;;;;;;;;;;5060656;28;20509;-82
2021/11/10 10:55:34;;;;;;;18.20;11.07;;;;;;;;;;5057159;28;20056;-82
2021/11/10 10:58:00;;;;;;;20.35;10.75;;;;;;;;;;5057549;28;20332;-80
2021/11/10 11:00:29;;;;;;;17.48;11.65;;;;;;;;;;5051322;28;20045;-82
2021/11/10 11:02:59;;;;;;;16.65;10.43;;;;;;;;;;5056902;28;20470;-82
2021/11/10 11:05:37;;;;;;;19.05;11.45;;;;;;;;;;5054598;28;20044;-80
2021/11/10 11:08:24;;;;;;;21.83;11.10;;;;;;;;;;5053197;28;20537;-81
2021/11/10 11:10:52;;;;;;;16.95;10.70;;;;;;;;;;5052632;28;20084;-81
2021/11/10 11:13:23;;;;;;;20.02;11.55;;;;;;;;;;5049991;28;20053;-83
2021/11/10 11:16:03;;;;;;;15.38;10.57;;;;;;;;;;5052194;28;20341;-81
2021/11/10 11:18:30;;;;;;;16.02;10.15;;;;;;;;;;5051333;28;20342;-82
2021/11/10 11:20:56;;;;;;;14.65;9.82;;;;;;;;;;5054569;28;20049;-81
2021/11/10 11:23:23;;;;;;;17.20;10.73;;;;;;;;;;5050621;28;20539;-80
2021/11/10 11:25:49;;;;;;;17.38;10.75;;;;;;;;;;5050926;28;20531;-85
2021/11/10 11:28:19;;;;;;;20.02;10.93;;;;;;;;;;5051548;28;20083;-84
2021/11/10 11:30:56;;;;;;;20.42;10.88;;;;;;;;;;5049048;28;20036;-81
2021/11/10 11:33:25;;;;;;;19.73;12.18;;;;;;;;;;5049038;28;20068;-80
2021/11/10 11:35:54;;;;;;;19.15;11.00;;;;;;;;;;5054108;28;21605;-83
2021/11/10 11:38:22;;;;;;;20.13;11.93;;;;;;;;;;5057714;28;20072;-84
2021/11/10 11:40:51;;;;;;;16.92;10.95;;;;;;;;;;5056698;28;20045;-83
2021/11/10 11:43:22;;;;;;;18.02;11.32;;;;;;;;;;5052631;28;20053;-84
2021/11/10 11:45:50;;;;;;;20.35;11.23;;;;;;;;;;5059745;28;20080;-84
2021/11/10 11:48:19;;;;;;;17.50;10.80;;;;;;;;;;5054386;28;20486;-81
2021/11/10 11:50:46;;;;;;;17.83;10.95;;;;;;;;;;5054289;28;20075;-82
2021/11/10 11:53:12;;;;;;;16.70;10.90;;;;;;;;;;5052317;28;20596;-84
2021/11/10 11:55:42;;;;;;;19.48;11.75;;;;;;;;;;5058021;28;20117;-82
2021/11/10 11:58:10;;;;;;;18.77;11.05;;;;;;;;;;5054112;28;20098;-83
2021/11/10 12:00:41;;;;;;;25.00;12.88;;;;;;;;;;5053723;28;20075;-81
2021/11/10 12:03:16;;;;;;;20.35;11.55;;;;;;;;;;5051272;28;20467;-80
2021/11/10 12:05:43;;;;;;;22.73;12.18;;;;;;;;;;5054679;28;20049;-82
2021/11/10 12:08:09;;;;;;;17.70;11.68;;;;;;;;;;5053228;28;20543;-83
2021/11/10 12:10:43;;;;;;;24.52;14.65;;;;;;;;;;5051549;28;20084;-80
2021/11/10 12:13:22;;;;;;;22.27;12.23;;;;;;;;;;5050923;28;20052;-83
2021/11/10 12:16:14;;;;;;;19.60;12.32;;;;;;;;;;5054176;28;20049;-80
2021/11/10 12:19:00;;;;;;;29.42;13.40;;;;;;;;;;5052028;28;20435;-81
2021/11/10 12:21:39;;;;;;;20.80;13.38;;;;;;;;;;5053501;28;20041;-80
2021/11/10 12:24:18;;;;;;;21.92;12.38;;;;;;;;;;5045384;28;20056;-80
2021/11/10 12:27:17;;;;;;;20.27;11.50;;;;;;;;;;5045431;28;20490;-80
2021/11/10 12:29:54;;;;;;;21.75;14.27;;;;;;;;;;5051361;28;20497;-79
2021/11/10 12:32:24;;;;;;;20.58;11.48;;;;;;;;;;5053924;28;20059;-80
2021/11/10 12:34:52;;;;;;;19.73;12.20;;;;;;;;;;5052897;28;20079;-79
2021/11/10 12:37:28;;;;;;;19.98;12.27;;;;;;;;;;5049883;28;20037;-83
2021/11/10 12:40:11;;;;;;;20.75;12.02;;;;;;;;;;5047706;28;20354;-78
2021/11/10 12:42:55;;;;;;;18.58;11.65;;;;;;;;;;5046837;28;20044;-79
2021/11/10 12:45:31;;;;;;;18.73;11.13;;;;;;;;;;5052938;28;20077;-78
2021/11/10 12:48:05;;;;;;;21.23;12.88;;;;;;;;;;5052510;28;20082;-79
2021/11/10 12:50:36;;;;;;;18.00;11.45;;;;;;;;;;5046543;28;20088;-82
2021/11/10 12:53:04;;;;;;;17.17;11.63;;;;;;;;;;5049728;28;20045;-80
2021/11/10 12:55:34;;;;;;;19.02;12.43;;;;;;;;;;5053640;28;20071;-82
2021/11/10 12:58:01;;;;;;;22.67;13.43;;;;;;;;;;5041819;28;20045;-77
2021/11/10 13:00:30;;;;;;;23.85;13.50;;;;;;;;;;5025979;28;20142;-81
2021/11/10 13:02:58;;;;;;;20.52;12.18;;;;;;;;;;5051030;28;20041;-82
2021/11/10 13:05:29;;;;;;;22.67;13.18;;;;;;;;;;5054083;28;20053;-81
2021/11/10 13:08:04;;;;;;;18.73;12.00;;;;;;;;;;5049819;28;20040;-80
2021/11/10 13:10:33;;;;;;;22.90;13.63;;;;;;;;;;5050282;28;20118;-80
2021/11/10 13:13:00;;;;;;;20.35;13.20;;;;;;;;;;5045622;28;20096;-81
2021/11/10 13:15:26;;;;;;;20.73;12.90;;;;;;;;;;5054408;28;20049;-79
2021/11/10 13:17:55;;;;;;;24.58;12.60;;;;;;;;;;5053582;28;20494;-80
2021/11/10 13:20:21;;;;;;;23.40;12.68;;;;;;;;;;5045339;28;20075;-81
2021/11/10 13:22:51;;;;;;;19.77;12.90;;;;;;;;;;5041680;28;20065;-81
2021/11/10 13:25:19;;;;;;;20.85;13.65;;;;;;;;;;5053326;28;20355;-79
2021/11/10 13:27:48;;;;;;;19.92;12.45;;;;;;;;;;5049278;28;20148;-80
2021/11/10 13:30:26;;;;;;;21.42;12.82;;;;;;;;;;5049071;28;20049;-80
2021/11/10 13:32:53;;;;;;;21.85;12.30;;;;;;;;;;5051600;28;20049;-80
2021/11/10 13:35:20;;;;;;;24.25;13.52;;;;;;;;;;5056158;28;20045;-81
2021/11/10 13:37:50;;;;;;;20.20;13.32;;;;;;;;;;5051207;28;20444;-80
2021/11/10 13:40:19;;;;;;;19.40;13.20;;;;;;;;;;5052964;28;20060;-80
2021/11/10 13:42:49;;;;;;;25.25;12.90;;;;;;;;;;5053786;28;20400;-82
2021/11/10 13:45:18;;;;;;;21.58;12.65;;;;;;;;;;5058439;28;20041;-80
2021/11/10 13:47:53;;;;;;;19.52;12.52;;;;;;;;;;5054249;28;20049;-83
2021/11/10 13:50:20;;;;;;;23.03;14.13;;;;;;;;;;5054238;28;20087;-80
2021/11/10 13:52:46;;;;;;;26.00;12.90;;;;;;;;;;5053486;28;20327;-82
2021/11/10 13:55:14;;;;;;;22.08;13.07;;;;;;;;;;5055036;28;20541;-82
2021/11/10 13:57:41;;;;;;;25.40;13.98;;;;;;;;;;5049983;28;20065;-80
2021/11/10 14:00:11;;;;;;;16.75;11.68;;;;;;;;;;5053148;28;20132;-80
2021/11/10 14:02:40;;;;;;;21.60;13.88;;;;;;;;;;5058981;28;20053;-80
2021/11/10 14:05:08;;;;;;;19.00;13.30;;;;;;;;;;5058459;28;20186;-79
2021/11/10 14:07:35;;;;;;;20.45;12.93;;;;;;;;;;5055826;28;20494;-81
2021/11/10 14:10:05;;;;;;;21.05;14.93;;;;;;;;;;5033021;28;20068;-77
2021/11/10 14:12:39;;;;;;;26.90;20.52;;;;;;;;;;5053341;28;20396;-80
2021/11/10 14:15:08;;;;;;;23.40;14.55;;;;;;;;;;5054976;28;20057;-82
2021/11/10 14:17:39;;;;;;;22.20;14.27;;;;;;;;;;5056728;28;20045;-79
2021/11/10 14:20:08;;;;;;;23.45;13.45;;;;;;;;;;5054505;28;20091;-82
2021/11/10 14:22:34;;;;;;;28.17;14.63;;;;;;;;;;5054672;28;20454;-82
2021/11/10 14:25:03;;;;;;;22.55;13.73;;;;;;;;;;5056196;28;20064;-80
2021/11/10 14:27:35;;;;;;;21.58;13.68;;;;;;;;;;5053819;28;20041;-80
2021/11/10 14:30:13;;;;;;;22.95;14.20;;;;;;;;;;5051388;28;20102;-77
2021/11/10 14:32:42;;;;;;;19.80;13.65;;;;;;;;;;5057742;28;20468;-81
2021/11/10 14:35:09;;;;;;;20.55;14.27;;;;;;;;;;5054295;28;20041;-82
2021/11/10 14:37:36;;;;;;;25.02;14.65;;;;;;;;;;5055917;28;20044;-81